Wetterstation Vordersexau
Wetterdaten: Woche 21.11.11 - 27.11.11 (KW47)
Datum Zeit Temp. A. Feuchte A. Luftdruck Regen Wind Richtung Taupunkt Windchill Windben
21.11.2011 00:00 1,3 C 86 % 1017,5 hPa 0,0 l/m 0,0 km/h NO -0,8 C 1,3 C 0,0 km/h
21.11.2011 01:00 0,8 C 86 % 1017,7 hPa 0,0 l/m 0,0 km/h O-SO -1,3 C 0,8 C 0,0 km/h
21.11.2011 02:00 0,4 C 86 % 1017,3 hPa 0,0 l/m 0,0 km/h O-NO -1,7 C 0,4 C 0,0 km/h
21.11.2011 03:00 0,3 C 86 % 1017,0 hPa 0,0 l/m 0,0 km/h NO -1,8 C 0,3 C 0,0 km/h
21.11.2011 04:00 1,3 C 85 % 1016,9 hPa 0,0 l/m 0,0 km/h NO -0,9 C 1,3 C 0,0 km/h
21.11.2011 05:00 1,9 C 84 % 1016,7 hPa 0,0 l/m 0,0 km/h NO -0,5 C 1,9 C 0,0 km/h
21.11.2011 06:00 2,4 C 84 % 1016,7 hPa 0,0 l/m 0,0 km/h SO -0,0 C 2,4 C 0,0 km/h
21.11.2011 07:00 1,3 C 84 % 1016,7 hPa 0,0 l/m 0,0 km/h O-NO -1,1 C 1,3 C 0,0 km/h
21.11.2011 08:00 1,4 C 84 % 1016,7 hPa 0,0 l/m 0,0 km/h NO -1,0 C 1,4 C 0,0 km/h
21.11.2011 09:00 8,2 C 86 % 1016,8 hPa 0,0 l/m 0,0 km/h SO 6,0 C 8,2 C 0,0 km/h
21.11.2011 10:00 12,3 C 75 % 1016,8 hPa 0,0 l/m 0,0 km/h N-NW 8,0 C 12,3 C 0,0 km/h
21.11.2011 11:00 14,4 C 62 % 1016,4 hPa 0,0 l/m 0,0 km/h W-NW 7,2 C 14,4 C 0,0 km/h
21.11.2011 12:00 14,6 C 59 % 1015,3 hPa 0,0 l/m 0,0 km/h NW 6,7 C 14,6 C 0,0 km/h
21.11.2011 13:00 15,6 C 58 % 1014,8 hPa 0,0 l/m 0,0 km/h W 7,4 C 15,6 C 0,0 km/h
21.11.2011 14:00 18,0 C 51 % 1014,5 hPa 0,0 l/m 0,0 km/h N-NO 7,7 C 18,0 C 0,0 km/h
21.11.2011 15:00 18,9 C 48 % 1014,2 hPa 0,0 l/m 0,0 km/h NW 7,6 C 18,9 C 0,0 km/h
21.11.2011 16:00 13,1 C 60 % 1014,3 hPa 0,0 l/m 0,0 km/h N-NW 5,5 C 13,1 C 0,0 km/h
21.11.2011 17:00 5,9 C 75 % 1014,5 hPa 0,0 l/m 0,0 km/h N-NW 1,8 C 5,9 C 0,0 km/h
21.11.2011 18:00 3,9 C 81 % 1014,9 hPa 0,0 l/m 0,0 km/h N-NW 0,9 C 3,9 C 0,0 km/h
21.11.2011 19:00 2,9 C 84 % 1015,4 hPa 0,0 l/m 0,0 km/h N-NW 0,5 C 2,9 C 0,0 km/h
21.11.2011 20:00 2,5 C 85 % 1015,5 hPa 0,0 l/m 0,0 km/h O-SO 0,2 C 2,5 C 0,0 km/h
21.11.2011 21:00 1,6 C 86 % 1015,5 hPa 0,0 l/m 0,0 km/h N-NO -0,5 C 1,6 C 0,0 km/h
21.11.2011 22:00 1,1 C 86 % 1015,7 hPa 0,0 l/m 0,0 km/h N-NO -1,0 C 1,1 C 0,0 km/h
21.11.2011 23:00 0,7 C 86 % 1016,0 hPa 0,0 l/m 0,0 km/h O-SO -1,4 C 0,7 C 0,0 km/h
22.11.2011 00:00 1,1 C 86 % 1015,9 hPa 0,0 l/m 0,0 km/h N-NO -1,0 C 1,1 C 0,0 km/h
22.11.2011 01:00 1,5 C 86 % 1015,5 hPa 0,0 l/m 0,0 km/h N-NO -0,6 C 1,5 C 0,0 km/h
22.11.2011 02:00 -0,4 C 86 % 1015,5 hPa 0,0 l/m 0,0 km/h NO -2,4 C -0,4 C 0,0 km/h
22.11.2011 03:00 -0,9 C 86 % 1015,4 hPa 0,0 l/m 0,0 km/h NO -2,9 C -0,9 C 0,0 km/h
22.11.2011 04:00 -0,4 C 86 % 1015,6 hPa 0,0 l/m 0,0 km/h NO -2,4 C -0,4 C 0,0 km/h
22.11.2011 05:00 -0,1 C 86 % 1015,5 hPa 0,0 l/m 0,0 km/h O-NO -2,2 C -0,1 C 0,0 km/h
22.11.2011 06:00 0,1 C 85 % 1015,6 hPa 0,0 l/m 0,0 km/h W-NW -2,1 C 0,1 C 0,0 km/h
22.11.2011 07:00 -0,3 C 85 % 1016,0 hPa 0,0 l/m 0,0 km/h W-NW -2,5 C -0,3 C 0,0 km/h
22.11.2011 08:00 0,2 C 84 % 1016,5 hPa 0,0 l/m 0,0 km/h W -2,2 C 0,2 C 0,0 km/h
22.11.2011 09:00 2,1 C 82 % 1017,0 hPa 0,0 l/m 0,0 km/h W-NW -0,6 C 2,1 C 0,0 km/h
22.11.2011 10:00 4,1 C 82 % 1017,1 hPa 0,4 l/m 0,0 km/h W-NW 1,3 C 4,1 C 0,0 km/h
22.11.2011 11:00 4,6 C 86 % 1017,3 hPa 0,0 l/m 3,9 km/h NW 2,5 C 4,6 C 2,2 km/h
22.11.2011 12:00 4,9 C 86 % 1017,4 hPa 0,0 l/m 0,0 km/h W-SW 2,8 C 4,9 C 0,0 km/h
22.11.2011 13:00 6,1 C 86 % 1016,9 hPa 0,0 l/m 0,0 km/h W 3,9 C 6,1 C 0,0 km/h
22.11.2011 14:00 5,4 C 86 % 1016,8 hPa 0,0 l/m 0,0 km/h N-NW 3,3 C 5,4 C 0,0 km/h
22.11.2011 15:00 4,9 C 86 % 1017,0 hPa 0,0 l/m 0,0 km/h S 2,8 C 4,9 C 0,0 km/h
22.11.2011 16:00 3,9 C 86 % 1017,2 hPa 0,0 l/m 0,0 km/h W-NW 1,8 C 3,9 C 0,0 km/h
22.11.2011 17:00 3,6 C 85 % 1017,9 hPa 0,0 l/m 0,0 km/h W-NW 1,3 C 3,6 C 0,0 km/h
22.11.2011 18:00 3,1 C 84 % 1018,6 hPa 0,0 l/m 0,0 km/h NW 0,7 C 3,1 C 0,0 km/h
22.11.2011 19:00 2,6 C 84 % 1018,8 hPa 0,0 l/m 0,0 km/h N 0,2 C 2,6 C 0,0 km/h
22.11.2011 20:00 2,6 C 83 % 1019,2 hPa 0,0 l/m 0,0 km/h N 0,0 C 2,6 C 0,0 km/h
22.11.2011 21:00 2,6 C 83 % 1019,8 hPa 0,0 l/m 0,0 km/h W-NW 0,0 C 2,6 C 0,0 km/h
22.11.2011 22:00 2,4 C 82 % 1019,8 hPa 0,0 l/m 0,0 km/h W-SW -0,4 C 2,4 C 0,0 km/h
22.11.2011 23:00 2,3 C 82 % 1020,3 hPa 0,0 l/m 7,1 km/h NW -0,4 C 1,6 C 4,0 km/h
23.11.2011 00:00 2,1 C 82 % 1020,6 hPa 0,0 l/m 0,0 km/h S-SO -0,6 C 2,1 C 0,0 km/h
23.11.2011 01:00 2,1 C 81 % 1020,3 hPa 0,0 l/m 0,0 km/h W -0,8 C 2,1 C 0,0 km/h
23.11.2011 02:00 2,2 C 81 % 1021,0 hPa 0,0 l/m 0,0 km/h N-NO -0,7 C 2,2 C 0,0 km/h
23.11.2011 03:00 2,0 C 81 % 1021,1 hPa 0,0 l/m 0,0 km/h N-NO -0,9 C 2,0 C 0,0 km/h
23.11.2011 04:00 1,9 C 80 % 1021,4 hPa 0,0 l/m 0,0 km/h NW -1,2 C 1,9 C 0,0 km/h
23.11.2011 05:00 1,9 C 80 % 1021,7 hPa 0,0 l/m 0,0 km/h S-SW -1,2 C 1,9 C 0,0 km/h
23.11.2011 06:00 1,9 C 80 % 1022,4 hPa 0,0 l/m 0,0 km/h S-SO -1,2 C 1,9 C 0,0 km/h
23.11.2011 07:00 1,9 C 80 % 1022,9 hPa 0,0 l/m 0,0 km/h W-NW -1,2 C 1,9 C 0,0 km/h
23.11.2011 08:00 1,9 C 79 % 1023,8 hPa 0,0 l/m 0,0 km/h N-NW -1,3 C 1,9 C 0,0 km/h
23.11.2011 09:00 2,2 C 79 % 1024,1 hPa 0,0 l/m 0,0 km/h W -1,1 C 2,2 C 0,0 km/h
23.11.2011 10:00 2,3 C 78 % 1024,6 hPa 0,0 l/m 0,0 km/h W-NW -1,1 C 2,3 C 0,0 km/h
23.11.2011 11:00 2,9 C 78 % 1024,8 hPa 0,0 l/m 0,0 km/h NW -0,5 C 2,9 C 0,0 km/h
23.11.2011 12:00 3,6 C 79 % 1024,4 hPa 0,0 l/m 0,0 km/h W-NW 0,3 C 3,6 C 0,0 km/h
23.11.2011 13:00 3,4 C 83 % 1024,5 hPa 0,0 l/m 0,0 km/h SW 0,8 C 3,4 C 0,0 km/h
23.11.2011 14:00 3,6 C 84 % 1024,4 hPa 0,0 l/m 0,0 km/h W-NW 1,2 C 3,6 C 0,0 km/h
23.11.2011 15:00 3,2 C 85 % 1024,6 hPa 0,0 l/m 0,0 km/h W-NW 0,9 C 3,2 C 0,0 km/h
23.11.2011 16:00 2,9 C 84 % 1025,2 hPa 0,0 l/m 2,6 km/h W 0,5 C 2,9 C 1,4 km/h
23.11.2011 17:00 2,8 C 83 % 1026,6 hPa 0,0 l/m 0,0 km/h W-NW 0,2 C 2,8 C 0,0 km/h
23.11.2011 18:00 2,5 C 82 % 1026,9 hPa 0,0 l/m 0,0 km/h NW -0,3 C 2,5 C 0,0 km/h
23.11.2011 19:00 2,6 C 81 % 1027,2 hPa 0,0 l/m 0,0 km/h S -0,3 C 2,6 C 0,0 km/h
23.11.2011 20:00 2,7 C 80 % 1028,0 hPa 0,0 l/m 0,0 km/h W-SW -0,4 C 2,7 C 0,0 km/h
23.11.2011 21:00 2,6 C 80 % 1029,0 hPa 0,0 l/m 0,0 km/h S-SO -0,5 C 2,6 C 0,0 km/h
23.11.2011 22:00 2,6 C 80 % 1029,5 hPa 0,0 l/m 0,0 km/h S -0,5 C 2,6 C 0,0 km/h
23.11.2011 23:00 2,6 C 80 % 1029,3 hPa 0,0 l/m 8,4 km/h S -0,5 C 0,7 C 4,7 km/h
24.11.2011 00:00 2,4 C 81 % 1029,6 hPa 0,0 l/m 0,0 km/h S-SO -0,5 C 2,4 C 0,0 km/h
24.11.2011 01:00 2,2 C 81 % 1029,5 hPa 0,0 l/m 0,0 km/h O-NO -0,7 C 2,2 C 0,0 km/h
24.11.2011 02:00 2,1 C 82 % 1029,7 hPa 0,0 l/m 0,0 km/h W-NW -0,6 C 2,1 C 0,0 km/h
24.11.2011 03:00 2,0 C 82 % 1030,1 hPa 0,0 l/m 0,0 km/h S -0,7 C 2,0 C 0,0 km/h
24.11.2011 04:00 2,1 C 82 % 1030,1 hPa 0,0 l/m 0,0 km/h S-SO -0,6 C 2,1 C 0,0 km/h
24.11.2011 05:00 1,9 C 83 % 1030,5 hPa 0,0 l/m 0,0 km/h SW -0,7 C 1,9 C 0,0 km/h
24.11.2011 06:00 1,8 C 84 % 1030,4 hPa 0,0 l/m 3,9 km/h SW -0,6 C 1,8 C 2,2 km/h
24.11.2011 07:00 1,6 C 84 % 1031,0 hPa 0,0 l/m 0,0 km/h W -0,8 C 1,6 C 0,0 km/h
24.11.2011 08:00 1,8 C 85 % 1031,7 hPa 0,0 l/m 0,0 km/h S -0,4 C 1,8 C 0,0 km/h
24.11.2011 09:00 1,9 C 86 % 1031,8 hPa 0,0 l/m 1,9 km/h N-NO -0,2 C 1,9 C 1,1 km/h
24.11.2011 10:00 2,5 C 86 % 1032,0 hPa 0,0 l/m 0,0 km/h SO 0,4 C 2,5 C 0,0 km/h
24.11.2011 11:00 2,7 C 87 % 1031,5 hPa 0,0 l/m 0,0 km/h SO 0,8 C 2,7 C 0,0 km/h
24.11.2011 12:00 3,8 C 87 % 1030,9 hPa 0,0 l/m 0,0 km/h SO 1,8 C 3,8 C 0,0 km/h
24.11.2011 13:00 3,8 C 86 % 1030,5 hPa 0,0 l/m 0,0 km/h S 1,7 C 3,8 C 0,0 km/h
24.11.2011 14:00 3,4 C 86 % 1029,8 hPa 0,0 l/m 0,0 km/h N-NO 1,3 C 3,4 C 0,0 km/h
24.11.2011 15:00 3,1 C 87 % 1029,7 hPa 0,0 l/m 0,0 km/h N-NO 1,2 C 3,1 C 0,0 km/h
24.11.2011 16:00 2,6 C 87 % 1029,3 hPa 0,0 l/m 0,0 km/h NW 0,7 C 2,6 C 0,0 km/h
24.11.2011 17:00 2,5 C 87 % 1029,8 hPa 0,0 l/m 0,0 km/h S 0,6 C 2,5 C 0,0 km/h
24.11.2011 18:00 2,4 C 87 % 1030,2 hPa 0,0 l/m 0,0 km/h S-SO 0,5 C 2,4 C 0,0 km/h
24.11.2011 19:00 2,4 C 87 % 1030,1 hPa 0,0 l/m 0,0 km/h S 0,5 C 2,4 C 0,0 km/h
24.11.2011 20:00 2,4 C 87 % 1030,3 hPa 0,0 l/m 0,0 km/h SO 0,5 C 2,4 C 0,0 km/h
24.11.2011 21:00 2,3 C 87 % 1029,7 hPa 0,0 l/m 0,0 km/h W 0,4 C 2,3 C 0,0 km/h
24.11.2011 22:00 2,2 C 87 % 1029,7 hPa 0,0 l/m 0,0 km/h S-SO 0,3 C 2,2 C 0,0 km/h
24.11.2011 23:00 2,0 C 87 % 1029,0 hPa 0,0 l/m 0,0 km/h O-SO 0,1 C 2,0 C 0,0 km/h
25.11.2011 00:00 1,9 C 87 % 1028,9 hPa 0,0 l/m 0,0 km/h O-SO -0,0 C 1,9 C 0,0 km/h
25.11.2011 01:00 1,6 C 87 % 1028,3 hPa 0,0 l/m 0,0 km/h NW -0,3 C 1,6 C 0,0 km/h
25.11.2011 02:00 1,3 C 87 % 1028,1 hPa 0,0 l/m 0,0 km/h SW -0,6 C 1,3 C 0,0 km/h
25.11.2011 03:00 1,1 C 87 % 1027,8 hPa 0,0 l/m 0,0 km/h O-SO -0,8 C 1,1 C 0,0 km/h
25.11.2011 04:00 0,9 C 87 % 1027,6 hPa 0,0 l/m 0,0 km/h SW -1,0 C 0,9 C 0,0 km/h
25.11.2011 05:00 0,8 C 87 % 1027,6 hPa 0,0 l/m 0,0 km/h W -1,1 C 0,8 C 0,0 km/h
25.11.2011 06:00 0,8 C 87 % 1028,0 hPa 0,0 l/m 0,0 km/h W -1,1 C 0,8 C 0,0 km/h
25.11.2011 07:00 0,6 C 87 % 1028,7 hPa 0,0 l/m 0,0 km/h SO -1,3 C 0,6 C 0,0 km/h
25.11.2011 08:00 0,5 C 86 % 1028,6 hPa 0,0 l/m 0,0 km/h S-SO -1,6 C 0,5 C 0,0 km/h
25.11.2011 09:00 0,9 C 87 % 1028,8 hPa 0,0 l/m 0,0 km/h SO -1,0 C 0,9 C 0,0 km/h
25.11.2011 10:00 1,8 C 88 % 1028,7 hPa 0,0 l/m 0,0 km/h S-SW 0,0 C 1,8 C 0,0 km/h
25.11.2011 11:00 5,5 C 85 % 1027,9 hPa 0,0 l/m 0,0 km/h N-NW 3,2 C 5,5 C 0,0 km/h
25.11.2011 12:00 6,4 C 77 % 1027,9 hPa 0,0 l/m 0,0 km/h S 2,7 C 6,4 C 0,0 km/h
25.11.2011 13:00 7,2 C 75 % 1027,6 hPa 0,0 l/m 0,0 km/h S-SO 3,1 C 7,2 C 0,0 km/h
25.11.2011 14:00 8,6 C 72 % 1026,1 hPa 0,0 l/m 0,0 km/h S-SO 3,8 C 8,6 C 0,0 km/h
25.11.2011 15:00 10,1 C 68 % 1026,7 hPa 0,0 l/m 0,0 km/h SO 4,5 C 10,1 C 0,0 km/h
25.11.2011 16:00 7,3 C 70 % 1026,8 hPa 0,0 l/m 0,0 km/h SO 2,2 C 7,3 C 0,0 km/h
25.11.2011 17:00 1,6 C 83 % 1027,9 hPa 0,0 l/m 0,0 km/h O-NO -1,0 C 1,6 C 0,0 km/h
25.11.2011 18:00 0,4 C 86 % 1028,1 hPa 0,0 l/m 0,0 km/h SO -1,7 C 0,4 C 0,0 km/h
25.11.2011 19:00 0,3 C 87 % 1028,0 hPa 0,0 l/m 0,0 km/h NW -1,6 C 0,3 C 0,0 km/h
25.11.2011 20:00 -0,9 C 87 % 1029,4 hPa 0,0 l/m 0,0 km/h SO -2,8 C -0,9 C 0,0 km/h
25.11.2011 21:00 -0,6 C 87 % 1029,2 hPa 0,0 l/m 0,0 km/h O-SO -2,5 C -0,6 C 0,0 km/h
25.11.2011 22:00 0,4 C 86 % 1030,0 hPa 0,0 l/m 0,0 km/h O-NO -1,7 C 0,4 C 0,0 km/h
25.11.2011 23:00 1,4 C 85 % 1029,9 hPa 0,0 l/m 0,0 km/h SO -0,8 C 1,4 C 0,0 km/h
26.11.2011 00:00 2,2 C 84 % 1030,4 hPa 0,0 l/m 0,0 km/h SO -0,2 C 2,2 C 0,0 km/h
26.11.2011 01:00 2,7 C 84 % 1030,2 hPa 0,0 l/m 0,0 km/h SO 0,3 C 2,7 C 0,0 km/h
26.11.2011 02:00 3,2 C 84 % 1030,5 hPa 0,0 l/m 0,0 km/h SO 0,8 C 3,2 C 0,0 km/h
26.11.2011 03:00 3,5 C 84 % 1030,6 hPa 0,0 l/m 0,0 km/h N-NW 1,1 C 3,5 C 0,0 km/h
26.11.2011 04:00 2,9 C 86 % 1031,0 hPa 0,0 l/m 0,0 km/h N-NW 0,8 C 2,9 C 0,0 km/h
26.11.2011 05:00 2,6 C 86 % 1031,3 hPa 0,0 l/m 0,0 km/h O-SO 0,5 C 2,6 C 0,0 km/h
26.11.2011 06:00 2,9 C 85 % 1031,3 hPa 0,0 l/m 0,0 km/h O-SO 0,6 C 2,9 C 0,0 km/h
26.11.2011 07:00 3,0 C 85 % 1032,1 hPa 0,0 l/m 0,0 km/h O 0,7 C 3,0 C 0,0 km/h
26.11.2011 08:00 2,3 C 86 % 1031,9 hPa 0,0 l/m 0,0 km/h O-SO 0,2 C 2,3 C 0,0 km/h
26.11.2011 09:00 6,6 C 83 % 1032,4 hPa 0,0 l/m 0,0 km/h S-SW 3,9 C 6,6 C 0,0 km/h
26.11.2011 10:00 8,7 C 81 % 1032,1 hPa 0,0 l/m 0,0 km/h W-NW 5,6 C 8,7 C 0,0 km/h
26.11.2011 11:00 9,3 C 76 % 1032,0 hPa 0,0 l/m 0,0 km/h S-SO 5,3 C 9,3 C 0,0 km/h
26.11.2011 12:00 9,6 C 77 % 1031,2 hPa 0,0 l/m 0,0 km/h S-SO 5,8 C 9,6 C 0,0 km/h
26.11.2011 13:00 9,9 C 74 % 1030,6 hPa 0,0 l/m 0,0 km/h SW 5,5 C 9,9 C 0,0 km/h
26.11.2011 14:00 12,4 C 68 % 1029,3 hPa 0,0 l/m 0,0 km/h NW 6,7 C 12,4 C 0,0 km/h
26.11.2011 15:00 13,3 C 64 % 1029,4 hPa 0,0 l/m 0,0 km/h N-NW 6,6 C 13,3 C 0,0 km/h
26.11.2011 16:00 7,3 C 74 % 1029,5 hPa 0,0 l/m 0,0 km/h NO 3,0 C 7,3 C 0,0 km/h
26.11.2011 17:00 3,8 C 85 % 1029,2 hPa 0,0 l/m 0,0 km/h O-NO 1,5 C 3,8 C 0,0 km/h
26.11.2011 18:00 2,6 C 86 % 1029,4 hPa 0,0 l/m 0,0 km/h O-SO 0,5 C 2,6 C 0,0 km/h
26.11.2011 19:00 1,4 C 86 % 1029,4 hPa 0,0 l/m 0,0 km/h O-NO -0,7 C 1,4 C 0,0 km/h
26.11.2011 20:00 1,6 C 86 % 1029,1 hPa 0,0 l/m 0,0 km/h S-SO -0,5 C 1,6 C 0,0 km/h
26.11.2011 21:00 0,2 C 87 % 1028,9 hPa 0,0 l/m 0,0 km/h S-SO -1,7 C 0,2 C 0,0 km/h
26.11.2011 22:00 0,7 C 86 % 1028,6 hPa 0,0 l/m 0,0 km/h S-SO -1,4 C 0,7 C 0,0 km/h
26.11.2011 23:00 1,5 C 85 % 1028,5 hPa 0,0 l/m 0,0 km/h SO -0,7 C 1,5 C 0,0 km/h
27.11.2011 00:00 1,5 C 85 % 1028,3 hPa 0,0 l/m 0,0 km/h SO -0,7 C 1,5 C 0,0 km/h
27.11.2011 01:00 0,6 C 84 % 1027,6 hPa 0,0 l/m 0,0 km/h S-SO -1,8 C 0,6 C 0,0 km/h
27.11.2011 02:00 0,6 C 84 % 1027,2 hPa 0,0 l/m 0,0 km/h S-SO -1,8 C 0,6 C 0,0 km/h
27.11.2011 03:00 -0,1 C 84 % 1026,3 hPa 0,0 l/m 0,0 km/h O-NO -2,5 C -0,1 C 0,0 km/h
27.11.2011 04:00 0,2 C 84 % 1026,0 hPa 0,0 l/m 0,0 km/h SO -2,2 C 0,2 C 0,0 km/h
27.11.2011 05:00 0,5 C 83 % 1025,3 hPa 0,0 l/m 0,0 km/h SW -2,0 C 0,5 C 0,0 km/h
27.11.2011 06:00 0,4 C 83 % 1024,9 hPa 0,0 l/m 0,0 km/h SO -2,1 C 0,4 C 0,0 km/h
27.11.2011 07:00 0,4 C 82 % 1025,0 hPa 0,0 l/m 0,0 km/h SO -2,3 C 0,4 C 0,0 km/h
27.11.2011 08:00 0,8 C 82 % 1025,2 hPa 0,0 l/m 0,6 km/h S-SO -1,9 C 0,8 C 0,4 km/h
27.11.2011 09:00 1,8 C 80 % 1025,1 hPa 0,0 l/m 3,2 km/h SW -1,3 C 1,8 C 1,8 km/h
27.11.2011 10:00 3,7 C 77 % 1025,2 hPa 0,0 l/m 0,0 km/h SO 0,1 C 3,7 C 0,0 km/h
27.11.2011 11:00 5,2 C 84 % 1025,1 hPa 0,0 l/m 1,9 km/h S 2,7 C 5,2 C 1,1 km/h
27.11.2011 12:00 8,8 C 83 % 1024,6 hPa 0,0 l/m 0,6 km/h S-SO 6,1 C 8,8 C 0,4 km/h
27.11.2011 13:00 10,8 C 75 % 1024,6 hPa 0,0 l/m 0,0 km/h W 6,5 C 10,8 C 0,0 km/h
27.11.2011 14:00 9,3 C 72 % 1024,7 hPa 0,0 l/m 21,4 km/h W-NW 4,5 C 1,9 C 11,9 km/h
27.11.2011 15:00 9,9 C 69 % 1024,6 hPa 0,0 l/m 19,4 km/h SW 4,5 C 3,4 C 10,8 km/h
27.11.2011 16:00 6,4 C 77 % 1026,0 hPa 0,0 l/m 1,9 km/h S-SW 2,7 C 6,4 C 1,1 km/h
27.11.2011 17:00 3,9 C 84 % 1026,1 hPa 0,0 l/m 4,5 km/h SO 1,4 C 3,9 C 2,5 km/h
27.11.2011 18:00 2,9 C 86 % 1025,8 hPa 0,0 l/m 7,1 km/h S-SO 0,8 C 2,2 C 4,0 km/h
27.11.2011 19:00 3,8 C 86 % 1026,0 hPa 0,0 l/m 16,2 km/h NO 1,7 C -3,0 C 9,0 km/h
27.11.2011 20:00 4,6 C 86 % 1026,4 hPa 0,0 l/m 0,0 km/h O 2,5 C 4,6 C 0,0 km/h
27.11.2011 21:00 5,2 C 86 % 1027,2 hPa 0,0 l/m 0,0 km/h SO 3,1 C 5,2 C 0,0 km/h
27.11.2011 22:00 5,8 C 86 % 1027,1 hPa 0,0 l/m 8,4 km/h SO 3,6 C 4,1 C 4,7 km/h
27.11.2011 23:00 5,6 C 86 % 1027,2 hPa 0,0 l/m 0,0 km/h O-NO 3,4 C 5,6 C 0,0 km/h
Min-Datum _ 22.11.11 21.11.11 21.11.11 - 21.11.11 - 22.11.11 27.11.11 21.11.11
_ Min-Zeit 03:30 15:30 15:30 - 00:30 - 03:30 19:30 00:30
Minimum _ -0,9 C 48 % 1014,2 hPa - 0,0 km/h - -2,9 C -3,0 C 0,0 km/h
Max-Datum _ 21.11.11 25.11.11 26.11.11 22.11.11 27.11.11 - 21.11.11 21.11.11 27.11.11
_ Max-Zeit 15:30 10:30 09:30 10:30 14:30 - 10:30 15:30 14:30
Maximum _ 18,9 C 88 % 1032,4 hPa 0,4 l/m 21,4 km/h
W-NW
- 8,0 C 18,9 C 11,9 km/h
W-NW
Durchschnitt _ 3,5 C 82 % 1024,6 hPa #0,4 l/m 0,7 km/h SO 0,7 C 3,3 C 0,4 km/h
www.sexauwetter.de